Salvamar Nunki — EA3364 — position and weather

sailwx.info

Track history (hours):
 
Tides and Currents Weather Stations Pressure Air Temp Water Temp Dewpoint Dewpoint Depression Visibility Wind Speed Wind Dir Waves Ship Positions

Salvamar Nunki

Last reported at 2017-Nov-17 13:19 UTC. Time now 2017-Nov-22 02:05 UTC.
Position N 28°08' W 015°25'.

Length 21 m; draft 1 m.

Type: SAR. MMSI: 224049950.

Date/timePositionNaut miles runAvg speedWind from/ knotsBaromVisibWave heightAir tempDewpointWater temp
2017-Nov-17 13:19N 28°08' W 015°25'0 0.0
2017-Nov-17 13:00N 28°08' W 015°25'0 0.0
2017-Nov-17 12:30N 28°08' W 015°25'0 0.0
2017-Nov-17 12:00N 28°08' W 015°25'0 0.0
2017-Nov-17 11:30N 28°08' W 015°25'0 0.0
2017-Nov-17 10:47N 28°08' W 015°25'0 0.0
2017-Nov-16 12:14N 28°08' W 015°25'0 0.3
2017-Nov-16 12:01N 28°08' W 015°26'1 1.5
2017-Nov-16 11:31N 28°08' W 015°25'1 1.3
2017-Nov-16 11:00N 28°08' W 015°25'0 0.6
2017-Nov-16 10:31N 28°08' W 015°25'0 0.5
2017-Nov-16 10:00N 28°08' W 015°25'1 1.2
2017-Nov-16 09:30N 28°08' W 015°25'0 0.0
2017-Nov-16 09:00N 28°08' W 015°25'0 0.0
2017-Nov-15 16:40N 28°08' W 015°25'0 0.0
2017-Nov-15 16:30N 28°08' W 015°25'0 0.0
2017-Nov-15 16:00N 28°08' W 015°25'0 0.0
2017-Nov-15 15:30N 28°08' W 015°25'0 0.0
2017-Nov-15 15:00N 28°08' W 015°25'0 0.0
2017-Nov-15 14:30N 28°08' W 015°25'0 0.0
2017-Nov-15 14:00N 28°08' W 015°25'0 0.0
2017-Nov-15 13:30N 28°08' W 015°25'0 0.0
2017-Nov-15 13:01N 28°08' W 015°25'0 0.0
2017-Nov-15 12:31N 28°08' W 015°25'0 0.0
2017-Nov-15 12:00N 28°08' W 015°25'0 0.0
2017-Nov-15 11:31N 28°08' W 015°25'0 0.0
2017-Nov-15 11:01N 28°08' W 015°25'0 0.0
2017-Nov-15 10:31N 28°08' W 015°25'0 0.0
2017-Nov-15 10:01N 28°08' W 015°25'0 0.0
2017-Nov-15 09:31N 28°08' W 015°25'0 0.0
2017-Nov-15 09:00N 28°08' W 015°25'0 0.0
2017-Nov-14 16:55N 28°08' W 015°25'0 0.0
2017-Nov-14 16:30N 28°08' W 015°25'0 0.0
2017-Nov-14 16:00N 28°08' W 015°25'0 0.0
2017-Nov-14 15:30N 28°08' W 015°25'0 0.0
2017-Nov-14 14:59N 28°08' W 015°25'0 0.0
2017-Nov-14 14:30N 28°08' W 015°25'0 0.0
2017-Nov-14 14:00N 28°08' W 015°25'0 0.0
2017-Nov-14 13:30N 28°08' W 015°25'0 0.0
2017-Nov-14 13:00N 28°08' W 015°25'0 0.0
2017-Nov-14 12:30N 28°08' W 015°25'0 0.0
2017-Nov-14 12:00N 28°08' W 015°25'0 0.0
2017-Nov-14 11:30N 28°08' W 015°25'0 0.0
2017-Nov-14 11:00N 28°08' W 015°25'0 0.0
2017-Nov-14 10:30N 28°08' W 015°25'0 0.0
2017-Nov-14 10:00N 28°08' W 015°25'0 0.0
2017-Nov-14 09:30N 28°08' W 015°25'0 0.0
2017-Nov-14 09:00N 28°08' W 015°25'0 0.0
2017-Nov-12 16:06N 28°08' W 015°25'0 0.0
2017-Nov-12 16:00N 28°08' W 015°25'2 4.8
2017-Nov-12 15:30N 28°09' W 015°28'4 7.5
2017-Nov-12 15:00N 28°09' W 015°32'2 4.0
2017-Nov-12 14:30N 28°09' W 015°30'0 0.9
2017-Nov-12 14:00N 28°09' W 015°30'2 3.4
2017-Nov-12 13:31N 28°10' W 015°29'4 7.3
2017-Nov-12 13:01N 28°08' W 015°25'0 0.0
2017-Nov-12 12:31N 28°08' W 015°25'0 0.1
2017-Nov-12 12:01N 28°08' W 015°26'0 0.1
2017-Nov-12 11:31N 28°08' W 015°26'4 8.7
2017-Nov-12 11:01N 28°10' W 015°29'2 3.4
2017-Nov-12 10:29N 28°09' W 015°30'0 0.1
2017-Nov-12 10:00N 28°09' W 015°30'2 4.2
2017-Nov-12 09:29N 28°08' W 015°28'3 6.1
2017-Nov-12 08:58N 28°09' W 015°31'2 4.3
2017-Nov-12 08:31N 28°10' W 015°29'4 7.6
2017-Nov-12 08:01N 28°08' W 015°25'0 0.0
2017-Nov-11 20:05N 28°08' W 015°25'0 0.1
2017-Nov-11 20:00N 28°08' W 015°25'3 6.9
2017-Nov-11 19:31N 28°11' W 015°27'4 7.9
2017-Nov-11 18:59N 28°09' W 015°31'0 0.3
2017-Nov-11 18:30N 28°09' W 015°31'0 0.6
2017-Nov-11 18:00N 28°09' W 015°31'713.2
2017-Nov-11 17:30N 28°10' W 015°24'3 0.1
2017-Nov-10 17:38N 28°08' W 015°25'0 0.0
2017-Nov-10 17:30N 28°08' W 015°25'0 0.0
2017-Nov-10 17:00N 28°08' W 015°25'0 0.0
2017-Nov-10 16:30N 28°08' W 015°25'0 0.0
2017-Nov-10 16:00N 28°08' W 015°25'0 0.0
2017-Nov-10 15:30N 28°08' W 015°25'0 0.0
2017-Nov-10 15:00N 28°08' W 015°25'0 0.0
2017-Nov-10 14:30N 28°08' W 015°25'0 0.0
2017-Nov-10 14:00N 28°08' W 015°25'0 0.0
2017-Nov-10 13:31N 28°08' W 015°25'0 0.0
2017-Nov-10 13:01N 28°08' W 015°25'0 0.0
2017-Nov-10 12:31N 28°08' W 015°25'0 0.0
2017-Nov-10 12:01N 28°08' W 015°25'0 0.0
2017-Nov-10 11:31N 28°08' W 015°25'0 0.0
2017-Nov-10 11:01N 28°08' W 015°25'0 0.0
2017-Nov-10 10:30N 28°08' W 015°25'0 0.0
2017-Nov-10 10:01N 28°08' W 015°25'0 0.0
2017-Nov-10 09:30N 28°08' W 015°25'0 0.0
2017-Nov-09 15:22N 28°08' W 015°25'410.6
2017-Nov-09 15:01N 28°04' W 015°25'4 7.5
2017-Nov-09 14:30N 28°08' W 015°25'0 0.0
2017-Nov-09 14:00N 28°08' W 015°25'0 0.0
2017-Nov-09 13:30N 28°08' W 015°25'0 0.0
2017-Nov-09 13:00N 28°08' W 015°25'0 0.0
2017-Nov-09 12:30N 28°08' W 015°25'0 0.0
2017-Nov-09 12:00N 28°08' W 015°25'0 0.0
2017-Nov-09 11:30N 28°08' W 015°25'0 0.0
2017-Nov-09 11:00N 28°08' W 015°25'0 0.0
2017-Nov-09 10:30N 28°08' W 015°25'0 0.0
2017-Nov-09 10:00N 28°08' W 015°25'0 0.0
2017-Nov-09 09:30N 28°08' W 015°25'0 0.0
2017-Nov-09 09:00N 28°08' W 015°25'0 0.0
2017-Nov-08 17:54N 28°08' W 015°25'0 0.0
2017-Nov-08 17:30N 28°08' W 015°25'0 0.0
2017-Nov-08 17:00N 28°08' W 015°25'0 0.0
2017-Nov-08 16:30N 28°08' W 015°25'0 0.0
2017-Nov-08 16:00N 28°08' W 015°25'0 0.1
2017-Nov-08 15:30N 28°08' W 015°26'0 0.1
2017-Nov-08 15:00N 28°08' W 015°25'0 0.0
2017-Nov-08 14:30N 28°08' W 015°25'0 0.0
2017-Nov-08 14:00N 28°08' W 015°25'0 0.0
2017-Nov-08 13:30N 28°08' W 015°25'0 0.0
2017-Nov-08 13:00N 28°08' W 015°25'0 0.0
2017-Nov-08 12:30N 28°08' W 015°25'0 0.0
2017-Nov-08 12:00N 28°08' W 015°25'0 0.0
2017-Nov-08 11:30N 28°08' W 015°25'0 0.0
2017-Nov-08 11:00N 28°08' W 015°25'0 0.9
2017-Nov-08 10:30N 28°07' W 015°25'3 5.5
2017-Nov-08 10:00N 28°06' W 015°22'2 3.7
2017-Nov-08 09:30N 28°06' W 015°20'5 9.9
2017-Nov-08 09:00N 28°08' W 015°25'0 0.0
2017-Nov-07 17:46N 28°08' W 015°25'0 0.0
2017-Nov-07 17:31N 28°08' W 015°25'0 0.0
2017-Nov-07 17:01N 28°08' W 015°25'0 0.0
2017-Nov-07 16:30N 28°08' W 015°25'0 0.0
2017-Nov-07 16:01N 28°08' W 015°25'0 0.0
2017-Nov-07 15:30N 28°08' W 015°25'0 0.0
2017-Nov-07 15:00N 28°08' W 015°25'0 0.0
2017-Nov-07 14:30N 28°08' W 015°25'0 0.0
2017-Nov-07 14:00N 28°08' W 015°25'0 0.0
2017-Nov-07 13:30N 28°08' W 015°25'  
Track history (hours):
 
Tides and Currents Weather Stations Pressure Air Temp Water Temp Dewpoint Dewpoint Depression Visibility Wind Speed Wind Dir Waves Ship Positions

Salvamar Nunki

Last reported at 2017-Nov-17 13:19 UTC. Time now 2017-Nov-22 02:05 UTC.
Position N 28°08' W 015°25'.

Length 21 m; draft 1 m.

Type: SAR. MMSI: 224049950.

Date/timePositionNaut miles runAvg speedWind from/ knotsBaromVisibWave heightAir tempDewpointWater temp
2017-Nov-17 13:19N 28°08' W 015°25'0 0.0
2017-Nov-17 13:00N 28°08' W 015°25'0 0.0
2017-Nov-17 12:30N 28°08' W 015°25'0 0.0
2017-Nov-17 12:00N 28°08' W 015°25'0 0.0
2017-Nov-17 11:30N 28°08' W 015°25'0 0.0
2017-Nov-17 10:47N 28°08' W 015°25'0 0.0
2017-Nov-16 12:14N 28°08' W 015°25'0 0.3
2017-Nov-16 12:01N 28°08' W 015°26'1 1.5
2017-Nov-16 11:31N 28°08' W 015°25'1 1.3
2017-Nov-16 11:00N 28°08' W 015°25'0 0.6
2017-Nov-16 10:31N 28°08' W 015°25'0 0.5
2017-Nov-16 10:00N 28°08' W 015°25'1 1.2
2017-Nov-16 09:30N 28°08' W 015°25'0 0.0
2017-Nov-16 09:00N 28°08' W 015°25'0 0.0
2017-Nov-15 16:40N 28°08' W 015°25'0 0.0
2017-Nov-15 16:30N 28°08' W 015°25'0 0.0
2017-Nov-15 16:00N 28°08' W 015°25'0 0.0
2017-Nov-15 15:30N 28°08' W 015°25'0 0.0
2017-Nov-15 15:00N 28°08' W 015°25'0 0.0
2017-Nov-15 14:30N 28°08' W 015°25'0 0.0
2017-Nov-15 14:00N 28°08' W 015°25'0 0.0
2017-Nov-15 13:30N 28°08' W 015°25'0 0.0
2017-Nov-15 13:01N 28°08' W 015°25'0 0.0
2017-Nov-15 12:31N 28°08' W 015°25'0 0.0
2017-Nov-15 12:00N 28°08' W 015°25'0 0.0
2017-Nov-15 11:31N 28°08' W 015°25'0 0.0
2017-Nov-15 11:01N 28°08' W 015°25'0 0.0
2017-Nov-15 10:31N 28°08' W 015°25'0 0.0
2017-Nov-15 10:01N 28°08' W 015°25'0 0.0
2017-Nov-15 09:31N 28°08' W 015°25'0 0.0
2017-Nov-15 09:00N 28°08' W 015°25'0 0.0
2017-Nov-14 16:55N 28°08' W 015°25'0 0.0
2017-Nov-14 16:30N 28°08' W 015°25'0 0.0
2017-Nov-14 16:00N 28°08' W 015°25'0 0.0
2017-Nov-14 15:30N 28°08' W 015°25'0 0.0
2017-Nov-14 14:59N 28°08' W 015°25'0 0.0
2017-Nov-14 14:30N 28°08' W 015°25'0 0.0
2017-Nov-14 14:00N 28°08' W 015°25'0 0.0
2017-Nov-14 13:30N 28°08' W 015°25'0 0.0
2017-Nov-14 13:00N 28°08' W 015°25'0 0.0
2017-Nov-14 12:30N 28°08' W 015°25'0 0.0
2017-Nov-14 12:00N 28°08' W 015°25'0 0.0
2017-Nov-14 11:30N 28°08' W 015°25'0 0.0
2017-Nov-14 11:00N 28°08' W 015°25'0 0.0
2017-Nov-14 10:30N 28°08' W 015°25'0 0.0
2017-Nov-14 10:00N 28°08' W 015°25'0 0.0
2017-Nov-14 09:30N 28°08' W 015°25'0 0.0
2017-Nov-14 09:00N 28°08' W 015°25'0 0.0
2017-Nov-12 16:06N 28°08' W 015°25'0 0.0
2017-Nov-12 16:00N 28°08' W 015°25'2 4.8
2017-Nov-12 15:30N 28°09' W 015°28'4 7.5
2017-Nov-12 15:00N 28°09' W 015°32'2 4.0
2017-Nov-12 14:30N 28°09' W 015°30'0 0.9
2017-Nov-12 14:00N 28°09' W 015°30'2 3.4
2017-Nov-12 13:31N 28°10' W 015°29'4 7.3
2017-Nov-12 13:01N 28°08' W 015°25'0 0.0
2017-Nov-12 12:31N 28°08' W 015°25'0 0.1
2017-Nov-12 12:01N 28°08' W 015°26'0 0.1
2017-Nov-12 11:31N 28°08' W 015°26'4 8.7
2017-Nov-12 11:01N 28°10' W 015°29'2 3.4
2017-Nov-12 10:29N 28°09' W 015°30'0 0.1
2017-Nov-12 10:00N 28°09' W 015°30'2 4.2
2017-Nov-12 09:29N 28°08' W 015°28'3 6.1
2017-Nov-12 08:58N 28°09' W 015°31'2 4.3
2017-Nov-12 08:31N 28°10' W 015°29'4 7.6
2017-Nov-12 08:01N 28°08' W 015°25'0 0.0
2017-Nov-11 20:05N 28°08' W 015°25'0 0.1
2017-Nov-11 20:00N 28°08' W 015°25'3 6.9
2017-Nov-11 19:31N 28°11' W 015°27'4 7.9
2017-Nov-11 18:59N 28°09' W 015°31'0 0.3
2017-Nov-11 18:30N 28°09' W 015°31'0 0.6
2017-Nov-11 18:00N 28°09' W 015°31'713.2
2017-Nov-11 17:30N 28°10' W 015°24'3 0.1
2017-Nov-10 17:38N 28°08' W 015°25'0 0.0
2017-Nov-10 17:30N 28°08' W 015°25'0 0.0
2017-Nov-10 17:00N 28°08' W 015°25'0 0.0
2017-Nov-10 16:30N 28°08' W 015°25'0 0.0
2017-Nov-10 16:00N 28°08' W 015°25'0 0.0
2017-Nov-10 15:30N 28°08' W 015°25'0 0.0
2017-Nov-10 15:00N 28°08' W 015°25'0 0.0
2017-Nov-10 14:30N 28°08' W 015°25'0 0.0
2017-Nov-10 14:00N 28°08' W 015°25'0 0.0
2017-Nov-10 13:31N 28°08' W 015°25'0 0.0
2017-Nov-10 13:01N 28°08' W 015°25'0 0.0
2017-Nov-10 12:31N 28°08' W 015°25'0 0.0
2017-Nov-10 12:01N 28°08' W 015°25'0 0.0
2017-Nov-10 11:31N 28°08' W 015°25'0 0.0
2017-Nov-10 11:01N 28°08' W 015°25'0 0.0
2017-Nov-10 10:30N 28°08' W 015°25'0 0.0
2017-Nov-10 10:01N 28°08' W 015°25'0 0.0
2017-Nov-10 09:30N 28°08' W 015°25'0 0.0
2017-Nov-09 15:22N 28°08' W 015°25'410.6
2017-Nov-09 15:01N 28°04' W 015°25'4 7.5
2017-Nov-09 14:30N 28°08' W 015°25'0 0.0
2017-Nov-09 14:00N 28°08' W 015°25'0 0.0
2017-Nov-09 13:30N 28°08' W 015°25'0 0.0
2017-Nov-09 13:00N 28°08' W 015°25'0 0.0
2017-Nov-09 12:30N 28°08' W 015°25'0 0.0
2017-Nov-09 12:00N 28°08' W 015°25'0 0.0
2017-Nov-09 11:30N 28°08' W 015°25'0 0.0
2017-Nov-09 11:00N 28°08' W 015°25'0 0.0
2017-Nov-09 10:30N 28°08' W 015°25'0 0.0
2017-Nov-09 10:00N 28°08' W 015°25'0 0.0
2017-Nov-09 09:30N 28°08' W 015°25'0 0.0
2017-Nov-09 09:00N 28°08' W 015°25'0 0.0
2017-Nov-08 17:54N 28°08' W 015°25'0 0.0
2017-Nov-08 17:30N 28°08' W 015°25'0 0.0
2017-Nov-08 17:00N 28°08' W 015°25'0 0.0
2017-Nov-08 16:30N 28°08' W 015°25'0 0.0
2017-Nov-08 16:00N 28°08' W 015°25'0 0.1
2017-Nov-08 15:30N 28°08' W 015°26'0 0.1
2017-Nov-08 15:00N 28°08' W 015°25'0 0.0
2017-Nov-08 14:30N 28°08' W 015°25'0 0.0
2017-Nov-08 14:00N 28°08' W 015°25'0 0.0
2017-Nov-08 13:30N 28°08' W 015°25'0 0.0
2017-Nov-08 13:00N 28°08' W 015°25'0 0.0
2017-Nov-08 12:30N 28°08' W 015°25'0 0.0
2017-Nov-08 12:00N 28°08' W 015°25'0 0.0
2017-Nov-08 11:30N 28°08' W 015°25'0 0.0
2017-Nov-08 11:00N 28°08' W 015°25'0 0.9
2017-Nov-08 10:30N 28°07' W 015°25'3 5.5
2017-Nov-08 10:00N 28°06' W 015°22'2 3.7
2017-Nov-08 09:30N 28°06' W 015°20'5 9.9
2017-Nov-08 09:00N 28°08' W 015°25'0 0.0
2017-Nov-07 17:46N 28°08' W 015°25'0 0.0
2017-Nov-07 17:31N 28°08' W 015°25'0 0.0
2017-Nov-07 17:01N 28°08' W 015°25'0 0.0
2017-Nov-07 16:30N 28°08' W 015°25'0 0.0
2017-Nov-07 16:01N 28°08' W 015°25'0 0.0
2017-Nov-07 15:30N 28°08' W 015°25'0 0.0
2017-Nov-07 15:00N 28°08' W 015°25'0 0.0
2017-Nov-07 14:30N 28°08' W 015°25'0 0.0
2017-Nov-07 14:00N 28°08' W 015°25'0 0.0
2017-Nov-07 13:30N 28°08' W 015°25'  

Dump ship's entire track history